Latest Coastal Weather Observations for Flinders Reef

IDQ60701

Issued at 2:55 am EST Friday 3 October 2014 (issued every 10 minutes, with the page automatically refreshed every 10 minutes)

About coastal observations | Map of coastal stations | Coastal observations for QLD | Marine services | Other Formats
Station Details ID: 200783 Name: FLINDERS REEF Lat: -17.72 Lon: 148.45 Height: 2.6 m
Data from the previous 72 hours. | See also: Recent months at Flinders Reef
Date/Time
EST
Temp

°C
Wind Pressure Rain
since 9am
mm
Weather Cloud Vis
km
Sea
Height
m
Swell
Dir
 
Speed
knots
Gust
knots
hPa Trend Height
m
Period
s
Dir
02/06:00pm 24.0 ESE 20 23 1015.6 - - - - - - - - -
02/05:30pm 24.1 SE 19 23 1015.5 - - - - - - - - -
02/05:24pm 24.0 SE 20 - 1015.3 - - - - - - - - -
02/05:00pm 24.0 ESE 19 23 1015.2 - - - - - - - - -
02/04:30pm 24.2 SE 19 22 1015.0 - - - - - - - - -
02/04:24pm 23.9 SE 20 - 1014.8 - - - - - - - - -
02/04:00pm 24.1 SE 19 22 1014.9 - - - - - - - - -
02/03:30pm 23.9 SE 18 21 1014.9 - - - - - - - - -
02/03:24pm 24.3 SE 18 - 1014.8 - - - - - - - - -
02/03:00pm 24.2 SE 19 21 1015.0 - - - - - - - - -
02/02:30pm 24.1 SE 19 22 1015.2 - - - - - - - - -
02/02:24pm 24.3 SE 18 - 1015.1 - - - - - - - - -
02/02:00pm 24.2 SE 16 19 1015.1 - - - - - - - - -
02/01:30pm 24.2 SE 16 19 1015.3 - - - - - - - - -
02/01:24pm 24.1 SE 16 - 1015.3 - - - - - - - - -
02/01:00pm 24.2 ESE 16 19 1015.7 - - - - - - - - -
02/12:30pm 24.2 ESE 15 18 1015.8 - - - - - - - - -
02/12:24pm 24.4 ESE 15 - 1015.9 - - - - - - - - -
02/12:00pm 24.2 ESE 15 19 1016.1 - - - - - - - - -
02/11:30am 24.3 ESE 15 19 1016.4 - - - - - - - - -
02/11:24am 24.3 ESE 14 - 1016.3 - - - - - - - - -
02/11:00am 24.2 ESE 15 17 1016.6 - - - - - - - - -
02/10:30am 24.1 ESE 14 17 1016.8 - - - - - - - - -
02/10:24am 24.0 ESE 14 - 1016.7 - - - - - - - - -
02/10:00am 24.0 ESE 16 17 1016.9 - - - - - - - - -
02/09:30am 24.0 ESE 16 19 1016.8 - - - - - - - - -
02/09:24am 24.1 ESE 17 - 1016.7 - - - - - - - - -
02/09:00am 24.0 ESE 16 19 1016.6 - - - - - - - - -
02/08:30am 23.9 SE 14 16 1016.6 - - - - - - - - -
02/08:24am 23.7 SE 14 - 1016.5 - - - - - - - - -
02/08:00am 23.8 ESE 15 18 1016.4 - - - - - - - - -
02/07:30am 23.7 ESE 14 16 1016.1 - - - - - - - - -
02/07:24am 23.8 ESE 14 - 1016.0 - - - - - - - - -
02/07:00am 23.8 ESE 14 17 1015.7 - - - - - - - - -
 
Date/Time
EST
Temp

°C
Wind Pressure Rain
since 9am
mm
Weather Cloud Vis
km
Sea
Height
m
Swell
Dir
 
Speed
knots
Gust
knots
hPa Trend Height
m
Period
s
Dir
01/06:00pm 23.9 SE 16 19 1015.2 - - - - - - - - -
01/05:30pm 24.0 SE 14 16 1015.1 - - - - - - - - -
01/05:24pm 24.2 SE 15 - 1015.0 - - - - - - - - -
01/05:00pm 24.1 SE 14 17 1015.0 - - - - - - - - -
01/04:30pm 24.0 ESE 12 15 1014.9 - - - - - - - - -
01/04:24pm 24.2 ESE 12 - 1014.8 - - - - - - - - -
01/04:00pm 24.0 ESE 12 14 1014.8 - - - - - - - - -
01/03:30pm 24.2 ESE 11 14 1014.8 - - - - - - - - -
01/03:24pm 24.1 ESE 12 - 1014.7 - - - - - - - - -
01/03:00pm 24.2 ESE 13 15 1014.9 - - - - - - - - -
01/02:30pm 24.3 ESE 12 15 1015.0 - - - - - - - - -
01/02:24pm 24.3 ESE 13 - 1015.0 - - - - - - - - -
01/02:00pm 24.3 ESE 13 15 1015.2 - - - - - - - - -
01/01:30pm 24.3 ESE 13 14 1015.5 - - - - - - - - -
01/01:24pm 24.3 ESE 13 - 1015.5 - - - - - - - - -
01/01:00pm 24.2 E 12 14 1015.8 - - - - - - - - -
01/12:30pm 24.3 E 13 17 1016.2 - - - - - - - - -
01/12:24pm 24.4 E 13 - 1016.2 - - - - - - - - -
01/12:00pm 24.5 E 14 16 1016.7 - - - - - - - - -
01/11:30am 24.8 E 13 16 1017.1 - - - - - - - - -
01/11:24am 24.8 E 14 - 1017.1 - - - - - - - - -
01/11:00am 24.9 E 14 17 1017.5 - - - - - - - - -
01/10:30am 24.6 E 16 19 1017.8 - - - - - - - - -
01/10:24am 24.6 E 17 - 1017.7 - - - - - - - - -
01/10:00am 24.7 E 16 19 1018.0 - - - - - - - - -
01/09:30am 24.5 E 16 19 1017.9 - - - - - - - - -
01/09:24am 24.5 E 16 - 1017.9 - - - - - - - - -
01/09:00am 24.4 E 13 16 1018.2 - - - - - - - - -
01/08:30am 24.1 E 15 17 1018.2 - - - - - - - - -
01/08:24am 24.1 E 13 - 1018.1 - - - - - - - - -
01/08:00am 24.0 E 16 19 1018.1 - - - - - - - - -
01/07:30am 23.8 E 18 21 1017.6 - - - - - - - - -
01/07:24am 23.8 E 17 - 1017.5 - - - - - - - - -
 
Date/Time
EST
Temp

°C
Wind Pressure Rain
since 9am
mm
Weather Cloud Vis
km
Sea
Height
m
Swell
Dir
 
Speed
knots
Gust
knots
hPa Trend Height
m
Period
s
Dir
30/06:00pm 23.7 SE 15 19 1016.6 - - - - - - - - -
30/05:30pm 23.6 SE 15 18 1016.3 - - - - - - - - -
30/05:24pm 23.7 SE 16 - 1016.2 - - - - - - - - -
30/05:00pm 23.8 ESE 16 18 1016.1 - - - - - - - - -
30/04:30pm 24.0 ESE 15 17 1016.0 - - - - - - - - -
30/04:24pm 23.8 ESE 15 - 1015.9 - - - - - - - - -
30/04:00pm 24.1 ESE 13 16 1015.8 - - - - - - - - -
30/03:30pm 24.0 SE 13 17 1015.7 - - - - - - - - -
30/03:24pm 24.1 SE 14 - 1015.5 - - - - - - - - -
30/03:00pm 24.1 SE 14 18 1015.7 - - - - - - - - -
30/02:30pm 24.1 SE 14 16 1015.8 - - - - - - - - -
30/02:24pm 24.0 SE 14 - 1015.8 - - - - - - - - -
30/02:00pm 24.2 SE 14 16 1016.1 - - - - - - - - -
30/01:30pm 24.2 SE 11 14 1016.1 - - - - - - - - -
30/01:24pm 24.0 SE 11 - 1016.1 - - - - - - - - -
30/01:00pm 23.9 SE 14 17 1016.5 - - - - - - - - -
30/12:30pm 24.0 ESE 16 19 1017.0 - - - - - - - - -
30/12:24pm 24.0 ESE 16 - 1017.0 - - - - - - - - -
30/12:00pm 24.1 ESE 15 18 1017.3 - - - - - - - - -
30/11:30am 24.3 E 16 19 1018.0 - - - - - - - - -
30/11:24am 24.3 E 16 - 1018.0 - - - - - - - - -
30/11:00am 24.3 E 16 18 1018.5 - - - - - - - - -
30/10:30am 24.4 ESE 18 21 1018.7 - - - - - - - - -
30/10:24am 24.4 ESE 18 - 1018.6 - - - - - - - - -
30/10:00am 24.4 ESE 18 21 1018.9 - - - - - - - - -
30/09:30am 24.1 E 21 24 1018.8 - - - - - - - - -
30/09:24am 24.2 ESE 21 - 1018.8 - - - - - - - - -
30/09:00am 23.8 ESE 23 26 1019.0 - - - - - - - - -
30/08:30am 23.9 E 16 19 1018.9 - - - - - - - - -
30/08:24am 23.7 E 15 - 1018.8 - - - - - - - - -
30/08:00am 23.4 E 20 25 1018.8 - - - - - - - - -
30/07:47am 23.3 E 22 25 1018.5 - - - - - - - - -
30/07:30am 23.4 ESE 21 25 1018.3 - - - - - - - - -
30/07:24am 23.7 SE 20 - 1018.1 - - - - - - - - -
30/07:00am 23.8 ESE 14 16 1018.0 - - - - - - - - -

Other Formats:

Comma delimited format used in spreadsheet applications
http://www.bom.gov.au/fwo/IDQ60701/IDQ60701.94290.axf

JavaScript Object Notation format (JSON) in row-major order
http://www.bom.gov.au/fwo/IDQ60701/IDQ60701.94290.json